sensor_id;sensor_type;location;lat;lon;timestamp;P1;durP1;ratioP1;P2;durP2;ratioP2
78183;SDS011;67442;44.570;18.610;2023-10-19T00:00:34;42.30;;;19.48;;
78183;SDS011;67442;44.570;18.610;2023-10-19T00:03:06;37.35;;;18.10;;
78183;SDS011;67442;44.570;18.610;2023-10-19T00:05:34;39.60;;;19.65;;
78183;SDS011;67442;44.570;18.610;2023-10-19T00:08:01;36.95;;;19.42;;
78183;SDS011;67442;44.570;18.610;2023-10-19T00:10:40;42.42;;;18.80;;
78183;SDS011;67442;44.570;18.610;2023-10-19T00:13:09;37.90;;;19.58;;
78183;SDS011;67442;44.570;18.610;2023-10-19T00:15:39;41.03;;;19.30;;
78183;SDS011;67442;44.570;18.610;2023-10-19T00:18:30;40.70;;;18.88;;
78183;SDS011;67442;44.570;18.610;2023-10-19T00:21:00;41.35;;;19.23;;
78183;SDS011;67442;44.570;18.610;2023-10-19T00:23:45;38.53;;;18.70;;
78183;SDS011;67442;44.570;18.610;2023-10-19T00:26:15;37.17;;;19.00;;
78183;SDS011;67442;44.570;18.610;2023-10-19T00:28:51;37.88;;;18.52;;
78183;SDS011;67442;44.570;18.610;2023-10-19T00:31:24;38.03;;;18.25;;
78183;SDS011;67442;44.570;18.610;2023-10-19T00:33:54;33.83;;;17.52;;
78183;SDS011;67442;44.570;18.610;2023-10-19T00:36:25;41.58;;;18.63;;
78183;SDS011;67442;44.570;18.610;2023-10-19T00:38:59;39.65;;;18.02;;
78183;SDS011;67442;44.570;18.610;2023-10-19T00:41:38;38.13;;;18.00;;
78183;SDS011;67442;44.570;18.610;2023-10-19T00:44:06;37.80;;;18.45;;
78183;SDS011;67442;44.570;18.610;2023-10-19T00:46:37;37.80;;;18.58;;
78183;SDS011;67442;44.570;18.610;2023-10-19T00:49:06;34.00;;;17.85;;
78183;SDS011;67442;44.570;18.610;2023-10-19T00:51:51;40.40;;;18.70;;
78183;SDS011;67442;44.570;18.610;2023-10-19T00:54:49;40.88;;;18.95;;
78183;SDS011;67442;44.570;18.610;2023-10-19T00:57:20;36.80;;;18.15;;
78183;SDS011;67442;44.570;18.610;2023-10-19T01:00:01;40.13;;;18.98;;
78183;SDS011;67442;44.570;18.610;2023-10-19T01:02:37;38.33;;;17.58;;
78183;SDS011;67442;44.570;18.610;2023-10-19T01:05:11;38.95;;;18.63;;
78183;SDS011;67442;44.570;18.610;2023-10-19T01:07:40;36.67;;;18.33;;
78183;SDS011;67442;44.570;18.610;2023-10-19T01:10:08;35.50;;;17.13;;
78183;SDS011;67442;44.570;18.610;2023-10-19T01:12:46;35.03;;;16.63;;
78183;SDS011;67442;44.570;18.610;2023-10-19T01:15:20;36.25;;;16.65;;
78183;SDS011;67442;44.570;18.610;2023-10-19T01:17:53;35.13;;;17.55;;
78183;SDS011;67442;44.570;18.610;2023-10-19T01:20:25;29.52;;;15.63;;
78183;SDS011;67442;44.570;18.610;2023-10-19T01:22:55;29.80;;;16.40;;
78183;SDS011;67442;44.570;18.610;2023-10-19T01:25:31;29.20;;;16.02;;
78183;SDS011;67442;44.570;18.610;2023-10-19T01:28:10;32.00;;;16.67;;
78183;SDS011;67442;44.570;18.610;2023-10-19T01:30:42;34.28;;;17.33;;
78183;SDS011;67442;44.570;18.610;2023-10-19T01:35:47;33.53;;;16.60;;
78183;SDS011;67442;44.570;18.610;2023-10-19T01:41:05;29.02;;;14.95;;
78183;SDS011;67442;44.570;18.610;2023-10-19T01:43:45;26.23;;;14.57;;
78183;SDS011;67442;44.570;18.610;2023-10-19T01:46:17;27.95;;;14.70;;
78183;SDS011;67442;44.570;18.610;2023-10-19T01:48:48;30.38;;;15.77;;
78183;SDS011;67442;44.570;18.610;2023-10-19T01:51:20;31.42;;;14.93;;
78183;SDS011;67442;44.570;18.610;2023-10-19T01:53:52;29.90;;;15.32;;
78183;SDS011;67442;44.570;18.610;2023-10-19T01:56:21;30.83;;;15.10;;
78183;SDS011;67442;44.570;18.610;2023-10-19T01:58:49;30.80;;;16.13;;
78183;SDS011;67442;44.570;18.610;2023-10-19T02:01:20;28.75;;;15.65;;
78183;SDS011;67442;44.570;18.610;2023-10-19T02:04:00;29.00;;;15.55;;
78183;SDS011;67442;44.570;18.610;2023-10-19T02:06:29;29.50;;;15.55;;
78183;SDS011;67442;44.570;18.610;2023-10-19T02:09:08;28.83;;;15.30;;
78183;SDS011;67442;44.570;18.610;2023-10-19T02:11:54;31.15;;;15.63;;
78183;SDS011;67442;44.570;18.610;2023-10-19T02:14:26;29.20;;;15.35;;
78183;SDS011;67442;44.570;18.610;2023-10-19T02:16:56;30.38;;;16.17;;
78183;SDS011;67442;44.570;18.610;2023-10-19T02:19:30;28.55;;;15.40;;
78183;SDS011;67442;44.570;18.610;2023-10-19T02:22:02;35.00;;;15.98;;
78183;SDS011;67442;44.570;18.610;2023-10-19T02:24:37;31.08;;;15.65;;
78183;SDS011;67442;44.570;18.610;2023-10-19T02:27:05;29.45;;;15.57;;
78183;SDS011;67442;44.570;18.610;2023-10-19T02:29:32;31.35;;;16.02;;
78183;SDS011;67442;44.570;18.610;2023-10-19T02:32:01;31.52;;;16.27;;
78183;SDS011;67442;44.570;18.610;2023-10-19T02:34:48;31.65;;;15.52;;
78183;SDS011;67442;44.570;18.610;2023-10-19T02:37:15;31.75;;;15.85;;
78183;SDS011;67442;44.570;18.610;2023-10-19T02:39:43;29.35;;;15.15;;
78183;SDS011;67442;44.570;18.610;2023-10-19T02:42:10;29.20;;;15.65;;
78183;SDS011;67442;44.570;18.610;2023-10-19T02:44:38;32.03;;;16.27;;
78183;SDS011;67442;44.570;18.610;2023-10-19T02:47:05;30.10;;;15.85;;
78183;SDS011;67442;44.570;18.610;2023-10-19T02:49:34;31.15;;;16.30;;
78183;SDS011;67442;44.570;18.610;2023-10-19T02:52:05;26.23;;;15.45;;
78183;SDS011;67442;44.570;18.610;2023-10-19T02:54:32;30.20;;;15.93;;
78183;SDS011;67442;44.570;18.610;2023-10-19T02:57:03;30.88;;;15.90;;
78183;SDS011;67442;44.570;18.610;2023-10-19T02:59:32;26.83;;;14.27;;
78183;SDS011;67442;44.570;18.610;2023-10-19T03:02:00;30.75;;;16.45;;
78183;SDS011;67442;44.570;18.610;2023-10-19T03:04:47;30.77;;;15.52;;
78183;SDS011;67442;44.570;18.610;2023-10-19T03:07:19;28.42;;;15.32;;
78183;SDS011;67442;44.570;18.610;2023-10-19T03:09:45;30.35;;;15.60;;
78183;SDS011;67442;44.570;18.610;2023-10-19T03:12:19;26.08;;;14.63;;
78183;SDS011;67442;44.570;18.610;2023-10-19T03:14:46;29.02;;;14.75;;
78183;SDS011;67442;44.570;18.610;2023-10-19T03:17:14;28.02;;;14.57;;
78183;SDS011;67442;44.570;18.610;2023-10-19T03:19:41;30.95;;;15.23;;
78183;SDS011;67442;44.570;18.610;2023-10-19T03:22:14;27.98;;;15.18;;
78183;SDS011;67442;44.570;18.610;2023-10-19T03:24:42;25.73;;;14.40;;
78183;SDS011;67442;44.570;18.610;2023-10-19T03:27:10;24.40;;;13.73;;
78183;SDS011;67442;44.570;18.610;2023-10-19T03:29:48;26.77;;;13.80;;
78183;SDS011;67442;44.570;18.610;2023-10-19T03:32:21;30.58;;;15.10;;
78183;SDS011;67442;44.570;18.610;2023-10-19T03:34:52;24.48;;;13.57;;
78183;SDS011;67442;44.570;18.610;2023-10-19T03:37:38;24.85;;;13.07;;
78183;SDS011;67442;44.570;18.610;2023-10-19T03:40:07;21.83;;;12.57;;
78183;SDS011;67442;44.570;18.610;2023-10-19T03:42:41;24.70;;;13.15;;
78183;SDS011;67442;44.570;18.610;2023-10-19T03:45:14;24.38;;;13.15;;
78183;SDS011;67442;44.570;18.610;2023-10-19T03:47:41;24.25;;;12.98;;
78183;SDS011;67442;44.570;18.610;2023-10-19T03:50:15;24.85;;;13.02;;
78183;SDS011;67442;44.570;18.610;2023-10-19T03:52:49;21.70;;;12.07;;
78183;SDS011;67442;44.570;18.610;2023-10-19T03:55:17;24.25;;;13.35;;
78183;SDS011;67442;44.570;18.610;2023-10-19T03:57:51;26.80;;;12.98;;
78183;SDS011;67442;44.570;18.610;2023-10-19T04:00:20;21.13;;;12.80;;
78183;SDS011;67442;44.570;18.610;2023-10-19T04:02:53;22.83;;;12.70;;
78183;SDS011;67442;44.570;18.610;2023-10-19T04:05:26;24.42;;;12.80;;
78183;SDS011;67442;44.570;18.610;2023-10-19T04:07:58;26.15;;;13.75;;
78183;SDS011;67442;44.570;18.610;2023-10-19T04:10:30;23.27;;;12.60;;
78183;SDS011;67442;44.570;18.610;2023-10-19T04:13:00;22.35;;;13.25;;
78183;SDS011;67442;44.570;18.610;2023-10-19T04:15:28;26.17;;;13.35;;
78183;SDS011;67442;44.570;18.610;2023-10-19T04:17:58;24.45;;;13.40;;
78183;SDS011;67442;44.570;18.610;2023-10-19T04:20:26;25.85;;;13.48;;
78183;SDS011;67442;44.570;18.610;2023-10-19T04:23:01;22.92;;;13.05;;
78183;SDS011;67442;44.570;18.610;2023-10-19T04:25:36;27.40;;;13.32;;
78183;SDS011;67442;44.570;18.610;2023-10-19T04:28:07;21.95;;;13.13;;
78183;SDS011;67442;44.570;18.610;2023-10-19T04:30:35;24.75;;;13.68;;
78183;SDS011;67442;44.570;18.610;2023-10-19T04:33:03;24.10;;;13.18;;
78183;SDS011;67442;44.570;18.610;2023-10-19T04:35:38;24.80;;;13.60;;
78183;SDS011;67442;44.570;18.610;2023-10-19T04:38:06;25.52;;;13.68;;
78183;SDS011;67442;44.570;18.610;2023-10-19T04:40:38;23.33;;;13.02;;
78183;SDS011;67442;44.570;18.610;2023-10-19T04:43:05;22.38;;;12.80;;
78183;SDS011;67442;44.570;18.610;2023-10-19T04:45:33;37.00;;;16.50;;
78183;SDS011;67442;44.570;18.610;2023-10-19T04:48:00;45.95;;;17.90;;
78183;SDS011;67442;44.570;18.610;2023-10-19T04:50:29;50.50;;;20.10;;
78183;SDS011;67442;44.570;18.610;2023-10-19T04:52:57;50.63;;;20.50;;
78183;SDS011;67442;44.570;18.610;2023-10-19T04:55:25;52.42;;;20.80;;
78183;SDS011;67442;44.570;18.610;2023-10-19T04:57:53;59.47;;;23.35;;
78183;SDS011;67442;44.570;18.610;2023-10-19T05:00:20;56.65;;;21.35;;
78183;SDS011;67442;44.570;18.610;2023-10-19T05:02:50;49.58;;;20.85;;
78183;SDS011;67442;44.570;18.610;2023-10-19T05:05:21;51.97;;;21.55;;
78183;SDS011;67442;44.570;18.610;2023-10-19T05:07:49;48.17;;;19.63;;
78183;SDS011;67442;44.570;18.610;2023-10-19T05:10:16;48.65;;;20.38;;
78183;SDS011;67442;44.570;18.610;2023-10-19T05:12:43;49.15;;;20.02;;
78183;SDS011;67442;44.570;18.610;2023-10-19T05:15:10;44.88;;;18.83;;
78183;SDS011;67442;44.570;18.610;2023-10-19T05:17:38;45.13;;;18.33;;
78183;SDS011;67442;44.570;18.610;2023-10-19T05:20:05;42.85;;;18.95;;
78183;SDS011;67442;44.570;18.610;2023-10-19T05:22:36;42.88;;;19.25;;
78183;SDS011;67442;44.570;18.610;2023-10-19T05:25:03;46.58;;;19.08;;
78183;SDS011;67442;44.570;18.610;2023-10-19T05:27:33;44.70;;;18.40;;
78183;SDS011;67442;44.570;18.610;2023-10-19T05:30:00;41.45;;;18.35;;
78183;SDS011;67442;44.570;18.610;2023-10-19T05:32:28;43.75;;;18.05;;
78183;SDS011;67442;44.570;18.610;2023-10-19T05:34:56;44.50;;;18.95;;
78183;SDS011;67442;44.570;18.610;2023-10-19T05:37:23;41.42;;;18.42;;
78183;SDS011;67442;44.570;18.610;2023-10-19T05:39:51;41.75;;;18.35;;
78183;SDS011;67442;44.570;18.610;2023-10-19T05:42:22;40.50;;;17.98;;
78183;SDS011;67442;44.570;18.610;2023-10-19T05:44:50;42.00;;;18.25;;
78183;SDS011;67442;44.570;18.610;2023-10-19T05:47:18;47.22;;;19.20;;
78183;SDS011;67442;44.570;18.610;2023-10-19T05:49:45;42.40;;;18.50;;
78183;SDS011;67442;44.570;18.610;2023-10-19T05:52:12;40.20;;;17.10;;
78183;SDS011;67442;44.570;18.610;2023-10-19T05:54:44;43.67;;;18.02;;
78183;SDS011;67442;44.570;18.610;2023-10-19T05:57:11;39.65;;;18.42;;
78183;SDS011;67442;44.570;18.610;2023-10-19T05:59:38;35.83;;;16.80;;
78183;SDS011;67442;44.570;18.610;2023-10-19T06:02:06;42.42;;;18.73;;
78183;SDS011;67442;44.570;18.610;2023-10-19T06:04:33;38.53;;;17.63;;
78183;SDS011;67442;44.570;18.610;2023-10-19T06:07:01;39.05;;;17.85;;
78183;SDS011;67442;44.570;18.610;2023-10-19T06:09:28;37.65;;;17.48;;
78183;SDS011;67442;44.570;18.610;2023-10-19T06:11:59;42.70;;;17.63;;
78183;SDS011;67442;44.570;18.610;2023-10-19T06:14:29;36.90;;;17.33;;
78183;SDS011;67442;44.570;18.610;2023-10-19T06:16:56;36.42;;;17.45;;
78183;SDS011;67442;44.570;18.610;2023-10-19T06:19:24;41.80;;;17.55;;
78183;SDS011;67442;44.570;18.610;2023-10-19T06:21:52;38.28;;;17.77;;
78183;SDS011;67442;44.570;18.610;2023-10-19T06:24:19;43.90;;;17.73;;
78183;SDS011;67442;44.570;18.610;2023-10-19T06:26:47;38.83;;;17.77;;
78183;SDS011;67442;44.570;18.610;2023-10-19T06:29:18;39.22;;;18.25;;
78183;SDS011;67442;44.570;18.610;2023-10-19T06:31:45;40.47;;;17.42;;
78183;SDS011;67442;44.570;18.610;2023-10-19T06:34:12;36.53;;;16.65;;
78183;SDS011;67442;44.570;18.610;2023-10-19T06:36:45;41.90;;;17.00;;
78183;SDS011;67442;44.570;18.610;2023-10-19T06:39:17;38.08;;;17.17;;
78183;SDS011;67442;44.570;18.610;2023-10-19T06:41:47;34.10;;;17.30;;
78183;SDS011;67442;44.570;18.610;2023-10-19T06:44:15;32.72;;;16.73;;
78183;SDS011;67442;44.570;18.610;2023-10-19T06:46:42;36.45;;;16.63;;
78183;SDS011;67442;44.570;18.610;2023-10-19T06:49:10;36.15;;;17.20;;
78183;SDS011;67442;44.570;18.610;2023-10-19T06:51:41;37.35;;;16.85;;
78183;SDS011;67442;44.570;18.610;2023-10-19T06:54:08;36.85;;;17.77;;
78183;SDS011;67442;44.570;18.610;2023-10-19T06:56:41;37.03;;;18.17;;
78183;SDS011;67442;44.570;18.610;2023-10-19T06:59:11;32.20;;;15.95;;
78183;SDS011;67442;44.570;18.610;2023-10-19T07:01:42;36.25;;;17.17;;
78183;SDS011;67442;44.570;18.610;2023-10-19T07:04:09;33.65;;;16.30;;
78183;SDS011;67442;44.570;18.610;2023-10-19T07:06:37;35.33;;;16.42;;
78183;SDS011;67442;44.570;18.610;2023-10-19T07:09:08;37.75;;;16.73;;
78183;SDS011;67442;44.570;18.610;2023-10-19T07:11:36;37.03;;;16.65;;
78183;SDS011;67442;44.570;18.610;2023-10-19T07:14:03;34.22;;;15.60;;
78183;SDS011;67442;44.570;18.610;2023-10-19T07:16:35;31.73;;;16.02;;
78183;SDS011;67442;44.570;18.610;2023-10-19T07:19:04;36.35;;;17.75;;
78183;SDS011;67442;44.570;18.610;2023-10-19T07:21:31;38.92;;;17.95;;
78183;SDS011;67442;44.570;18.610;2023-10-19T07:24:05;36.65;;;16.50;;
78183;SDS011;67442;44.570;18.610;2023-10-19T07:26:36;36.20;;;15.82;;
78183;SDS011;67442;44.570;18.610;2023-10-19T07:29:21;34.80;;;16.48;;
78183;SDS011;67442;44.570;18.610;2023-10-19T07:31:49;34.65;;;16.60;;
78183;SDS011;67442;44.570;18.610;2023-10-19T07:34:20;32.35;;;16.17;;
78183;SDS011;67442;44.570;18.610;2023-10-19T07:36:51;35.30;;;16.15;;
78183;SDS011;67442;44.570;18.610;2023-10-19T07:39:23;33.97;;;16.77;;
78183;SDS011;67442;44.570;18.610;2023-10-19T07:41:55;37.00;;;16.15;;
78183;SDS011;67442;44.570;18.610;2023-10-19T07:44:22;35.75;;;16.63;;
78183;SDS011;67442;44.570;18.610;2023-10-19T07:46:53;34.72;;;15.70;;
78183;SDS011;67442;44.570;18.610;2023-10-19T07:49:21;31.27;;;14.60;;
78183;SDS011;67442;44.570;18.610;2023-10-19T07:51:51;35.40;;;16.20;;
78183;SDS011;67442;44.570;18.610;2023-10-19T07:54:18;38.63;;;16.30;;
78183;SDS011;67442;44.570;18.610;2023-10-19T07:56:49;32.30;;;16.67;;
78183;SDS011;67442;44.570;18.610;2023-10-19T07:59:17;32.78;;;15.63;;
78183;SDS011;67442;44.570;18.610;2023-10-19T08:01:44;37.38;;;16.30;;
78183;SDS011;67442;44.570;18.610;2023-10-19T08:04:15;31.10;;;15.10;;
78183;SDS011;67442;44.570;18.610;2023-10-19T08:06:43;32.88;;;16.25;;
78183;SDS011;67442;44.570;18.610;2023-10-19T08:09:10;39.58;;;17.63;;
78183;SDS011;67442;44.570;18.610;2023-10-19T08:11:37;33.10;;;16.35;;
78183;SDS011;67442;44.570;18.610;2023-10-19T08:14:07;32.90;;;16.02;;
78183;SDS011;67442;44.570;18.610;2023-10-19T08:16:39;32.95;;;15.93;;
78183;SDS011;67442;44.570;18.610;2023-10-19T08:19:07;32.45;;;15.40;;
78183;SDS011;67442;44.570;18.610;2023-10-19T08:21:40;38.78;;;16.25;;
78183;SDS011;67442;44.570;18.610;2023-10-19T08:24:08;33.25;;;16.00;;
78183;SDS011;67442;44.570;18.610;2023-10-19T08:26:42;32.35;;;16.35;;
78183;SDS011;67442;44.570;18.610;2023-10-19T08:29:09;29.10;;;15.30;;
78183;SDS011;67442;44.570;18.610;2023-10-19T08:31:40;36.90;;;16.55;;
78183;SDS011;67442;44.570;18.610;2023-10-19T08:34:07;31.20;;;14.10;;
78183;SDS011;67442;44.570;18.610;2023-10-19T08:36:38;31.67;;;15.90;;
78183;SDS011;67442;44.570;18.610;2023-10-19T08:39:08;33.80;;;15.50;;
78183;SDS011;67442;44.570;18.610;2023-10-19T08:41:41;30.90;;;15.63;;
78183;SDS011;67442;44.570;18.610;2023-10-19T08:44:25;32.97;;;16.90;;
78183;SDS011;67442;44.570;18.610;2023-10-19T08:46:53;31.00;;;16.00;;
78183;SDS011;67442;44.570;18.610;2023-10-19T08:49:25;34.75;;;16.33;;
78183;SDS011;67442;44.570;18.610;2023-10-19T08:51:56;34.20;;;16.00;;
78183;SDS011;67442;44.570;18.610;2023-10-19T08:54:26;30.50;;;15.15;;
78183;SDS011;67442;44.570;18.610;2023-10-19T08:56:53;28.80;;;14.40;;
78183;SDS011;67442;44.570;18.610;2023-10-19T08:59:24;34.00;;;16.40;;
78183;SDS011;67442;44.570;18.610;2023-10-19T09:02:02;31.23;;;15.35;;
78183;SDS011;67442;44.570;18.610;2023-10-19T09:04:40;31.92;;;15.80;;
78183;SDS011;67442;44.570;18.610;2023-10-19T09:07:12;31.90;;;15.25;;
78183;SDS011;67442;44.570;18.610;2023-10-19T09:09:43;32.35;;;16.55;;
78183;SDS011;67442;44.570;18.610;2023-10-19T09:12:13;31.27;;;15.48;;
78183;SDS011;67442;44.570;18.610;2023-10-19T09:14:40;34.05;;;16.17;;
78183;SDS011;67442;44.570;18.610;2023-10-19T09:17:09;31.95;;;15.88;;
78183;SDS011;67442;44.570;18.610;2023-10-19T09:19:39;30.85;;;15.90;;
78183;SDS011;67442;44.570;18.610;2023-10-19T09:22:09;33.45;;;15.98;;
78183;SDS011;67442;44.570;18.610;2023-10-19T09:24:48;30.77;;;14.35;;
78183;SDS011;67442;44.570;18.610;2023-10-19T09:27:17;29.85;;;14.23;;
78183;SDS011;67442;44.570;18.610;2023-10-19T09:29:48;28.00;;;14.02;;
78183;SDS011;67442;44.570;18.610;2023-10-19T09:32:18;33.13;;;15.02;;
78183;SDS011;67442;44.570;18.610;2023-10-19T09:34:45;28.38;;;14.55;;
78183;SDS011;67442;44.570;18.610;2023-10-19T09:37:14;33.58;;;15.90;;
78183;SDS011;67442;44.570;18.610;2023-10-19T09:39:42;29.38;;;15.23;;
78183;SDS011;67442;44.570;18.610;2023-10-19T09:42:13;27.90;;;15.13;;
78183;SDS011;67442;44.570;18.610;2023-10-19T09:44:51;33.50;;;15.80;;
78183;SDS011;67442;44.570;18.610;2023-10-19T09:47:33;32.13;;;14.10;;
78183;SDS011;67442;44.570;18.610;2023-10-19T09:50:05;25.67;;;13.88;;
78183;SDS011;67442;44.570;18.610;2023-10-19T09:52:37;31.33;;;15.55;;
78183;SDS011;67442;44.570;18.610;2023-10-19T09:57:32;31.40;;;15.63;;
78183;SDS011;67442;44.570;18.610;2023-10-19T10:00:04;29.83;;;14.43;;
78183;SDS011;67442;44.570;18.610;2023-10-19T10:02:43;29.83;;;15.13;;
78183;SDS011;67442;44.570;18.610;2023-10-19T10:10:45;30.65;;;15.57;;
78183;SDS011;67442;44.570;18.610;2023-10-19T10:13:48;32.20;;;15.98;;
78183;SDS011;67442;44.570;18.610;2023-10-19T10:16:08;29.58;;;13.95;;
78183;SDS011;67442;44.570;18.610;2023-10-19T10:18:37;29.90;;;14.75;;
78183;SDS011;67442;44.570;18.610;2023-10-19T10:21:08;29.35;;;14.90;;
78183;SDS011;67442;44.570;18.610;2023-10-19T10:28:40;27.75;;;14.52;;
78183;SDS011;67442;44.570;18.610;2023-10-19T10:31:11;28.17;;;14.30;;
78183;SDS011;67442;44.570;18.610;2023-10-19T10:33:42;29.58;;;14.70;;
78183;SDS011;67442;44.570;18.610;2023-10-19T10:36:29;27.75;;;13.43;;
78183;SDS011;67442;44.570;18.610;2023-10-19T10:39:52;30.20;;;14.45;;
78183;SDS011;67442;44.570;18.610;2023-10-19T10:42:25;29.05;;;14.05;;
78183;SDS011;67442;44.570;18.610;2023-10-19T10:44:52;30.00;;;13.77;;
78183;SDS011;67442;44.570;18.610;2023-10-19T10:47:21;26.15;;;14.57;;
78183;SDS011;67442;44.570;18.610;2023-10-19T10:49:56;25.42;;;13.48;;
78183;SDS011;67442;44.570;18.610;2023-10-19T10:52:28;31.10;;;14.40;;
78183;SDS011;67442;44.570;18.610;2023-10-19T10:57:37;27.92;;;13.60;;
78183;SDS011;67442;44.570;18.610;2023-10-19T11:00:05;28.95;;;13.77;;
78183;SDS011;67442;44.570;18.610;2023-10-19T11:03:03;28.98;;;13.77;;
78183;SDS011;67442;44.570;18.610;2023-10-19T11:05:33;28.13;;;14.63;;
78183;SDS011;67442;44.570;18.610;2023-10-19T11:08:11;27.42;;;14.43;;
78183;SDS011;67442;44.570;18.610;2023-10-19T11:10:47;24.98;;;13.45;;
78183;SDS011;67442;44.570;18.610;2023-10-19T11:13:15;27.65;;;13.73;;
78183;SDS011;67442;44.570;18.610;2023-10-19T11:16:03;26.27;;;14.07;;
78183;SDS011;67442;44.570;18.610;2023-10-19T11:18:35;27.40;;;13.50;;
78183;SDS011;67442;44.570;18.610;2023-10-19T11:21:08;29.52;;;14.63;;
78183;SDS011;67442;44.570;18.610;2023-10-19T11:26:11;28.50;;;14.00;;
78183;SDS011;67442;44.570;18.610;2023-10-19T11:28:40;26.05;;;14.13;;
78183;SDS011;67442;44.570;18.610;2023-10-19T11:33:53;26.83;;;13.88;;
78183;SDS011;67442;44.570;18.610;2023-10-19T11:36:39;28.98;;;14.25;;
78183;SDS011;67442;44.570;18.610;2023-10-19T11:39:07;28.73;;;12.68;;
78183;SDS011;67442;44.570;18.610;2023-10-19T11:41:37;26.27;;;13.25;;
78183;SDS011;67442;44.570;18.610;2023-10-19T11:44:05;28.92;;;14.80;;
78183;SDS011;67442;44.570;18.610;2023-10-19T11:46:34;27.63;;;13.93;;
78183;SDS011;67442;44.570;18.610;2023-10-19T11:49:01;25.90;;;13.57;;
78183;SDS011;67442;44.570;18.610;2023-10-19T11:51:29;27.95;;;14.50;;
78183;SDS011;67442;44.570;18.610;2023-10-19T11:53:59;26.10;;;13.68;;
78183;SDS011;67442;44.570;18.610;2023-10-19T11:56:27;26.77;;;13.77;;
78183;SDS011;67442;44.570;18.610;2023-10-19T11:58:58;29.35;;;14.30;;
78183;SDS011;67442;44.570;18.610;2023-10-19T12:01:27;25.35;;;13.75;;
78183;SDS011;67442;44.570;18.610;2023-10-19T12:03:55;27.50;;;14.00;;
78183;SDS011;67442;44.570;18.610;2023-10-19T12:06:22;24.05;;;13.13;;
78183;SDS011;67442;44.570;18.610;2023-10-19T12:08:50;25.52;;;13.80;;
78183;SDS011;67442;44.570;18.610;2023-10-19T12:11:20;28.23;;;14.02;;
78183;SDS011;67442;44.570;18.610;2023-10-19T12:13:47;25.27;;;12.52;;
78183;SDS011;67442;44.570;18.610;2023-10-19T12:16:15;28.08;;;13.75;;
78183;SDS011;67442;44.570;18.610;2023-10-19T12:18:43;21.95;;;12.50;;
78183;SDS011;67442;44.570;18.610;2023-10-19T12:21:16;26.13;;;13.35;;
78183;SDS011;67442;44.570;18.610;2023-10-19T12:23:55;25.92;;;12.98;;
78183;SDS011;67442;44.570;18.610;2023-10-19T12:26:29;22.30;;;12.38;;
78183;SDS011;67442;44.570;18.610;2023-10-19T12:28:56;23.80;;;12.77;;
78183;SDS011;67442;44.570;18.610;2023-10-19T12:31:23;29.38;;;14.20;;
78183;SDS011;67442;44.570;18.610;2023-10-19T12:33:51;26.80;;;12.98;;
78183;SDS011;67442;44.570;18.610;2023-10-19T12:36:22;22.77;;;12.68;;
78183;SDS011;67442;44.570;18.610;2023-10-19T12:38:52;26.15;;;12.70;;
78183;SDS011;67442;44.570;18.610;2023-10-19T12:41:20;26.80;;;13.25;;
78183;SDS011;67442;44.570;18.610;2023-10-19T12:43:48;25.00;;;12.77;;
78183;SDS011;67442;44.570;18.610;2023-10-19T12:46:18;23.52;;;12.13;;
78183;SDS011;67442;44.570;18.610;2023-10-19T12:48:45;23.42;;;13.00;;
78183;SDS011;67442;44.570;18.610;2023-10-19T12:51:13;22.38;;;12.73;;
78183;SDS011;67442;44.570;18.610;2023-10-19T12:53:54;22.95;;;12.40;;
78183;SDS011;67442;44.570;18.610;2023-10-19T12:56:39;24.25;;;12.60;;
78183;SDS011;67442;44.570;18.610;2023-10-19T12:59:10;23.77;;;12.88;;
78183;SDS011;67442;44.570;18.610;2023-10-19T13:01:39;23.88;;;12.63;;
78183;SDS011;67442;44.570;18.610;2023-10-19T13:04:06;22.92;;;11.38;;
78183;SDS011;67442;44.570;18.610;2023-10-19T13:06:44;23.25;;;12.32;;
78183;SDS011;67442;44.570;18.610;2023-10-19T13:09:12;19.75;;;11.80;;
78183;SDS011;67442;44.570;18.610;2023-10-19T13:11:41;23.80;;;12.93;;
78183;SDS011;67442;44.570;18.610;2023-10-19T13:14:09;23.20;;;12.30;;
78183;SDS011;67442;44.570;18.610;2023-10-19T13:16:37;23.02;;;11.82;;
78183;SDS011;67442;44.570;18.610;2023-10-19T13:19:06;23.90;;;12.40;;
78183;SDS011;67442;44.570;18.610;2023-10-19T13:21:40;21.65;;;11.73;;
78183;SDS011;67442;44.570;18.610;2023-10-19T13:24:09;24.38;;;12.95;;
78183;SDS011;67442;44.570;18.610;2023-10-19T13:26:36;23.55;;;12.27;;
78183;SDS011;67442;44.570;18.610;2023-10-19T13:29:05;23.00;;;12.60;;
78183;SDS011;67442;44.570;18.610;2023-10-19T13:31:33;22.98;;;11.98;;
78183;SDS011;67442;44.570;18.610;2023-10-19T13:34:00;24.33;;;12.07;;
78183;SDS011;67442;44.570;18.610;2023-10-19T13:36:28;22.35;;;12.38;;
78183;SDS011;67442;44.570;18.610;2023-10-19T13:38:56;21.67;;;11.98;;
78183;SDS011;67442;44.570;18.610;2023-10-19T13:41:24;22.17;;;11.38;;
78183;SDS011;67442;44.570;18.610;2023-10-19T13:43:51;24.65;;;12.50;;
78183;SDS011;67442;44.570;18.610;2023-10-19T13:46:18;22.30;;;12.40;;
78183;SDS011;67442;44.570;18.610;2023-10-19T13:48:49;23.48;;;11.90;;
78183;SDS011;67442;44.570;18.610;2023-10-19T13:51:20;24.63;;;12.43;;
78183;SDS011;67442;44.570;18.610;2023-10-19T13:53:52;23.33;;;12.20;;
78183;SDS011;67442;44.570;18.610;2023-10-19T13:56:19;22.58;;;11.90;;
78183;SDS011;67442;44.570;18.610;2023-10-19T13:58:46;21.85;;;11.85;;
78183;SDS011;67442;44.570;18.610;2023-10-19T14:01:17;18.83;;;11.00;;
78183;SDS011;67442;44.570;18.610;2023-10-19T14:03:44;22.08;;;11.02;;
78183;SDS011;67442;44.570;18.610;2023-10-19T14:06:16;19.48;;;10.95;;
78183;SDS011;67442;44.570;18.610;2023-10-19T14:08:43;21.98;;;12.38;;
78183;SDS011;67442;44.570;18.610;2023-10-19T14:11:15;23.42;;;11.95;;
78183;SDS011;67442;44.570;18.610;2023-10-19T14:13:43;18.13;;;10.52;;
78183;SDS011;67442;44.570;18.610;2023-10-19T14:16:10;21.20;;;12.05;;
78183;SDS011;67442;44.570;18.610;2023-10-19T14:18:38;22.38;;;11.40;;
78183;SDS011;67442;44.570;18.610;2023-10-19T14:21:14;22.42;;;11.52;;
78183;SDS011;67442;44.570;18.610;2023-10-19T14:23:43;22.23;;;11.85;;
78183;SDS011;67442;44.570;18.610;2023-10-19T14:26:10;21.73;;;11.73;;
78183;SDS011;67442;44.570;18.610;2023-10-19T14:28:38;19.70;;;11.88;;
78183;SDS011;67442;44.570;18.610;2023-10-19T14:31:06;21.75;;;11.43;;
78183;SDS011;67442;44.570;18.610;2023-10-19T14:33:33;21.80;;;11.57;;
78183;SDS011;67442;44.570;18.610;2023-10-19T14:36:01;21.63;;;11.57;;
78183;SDS011;67442;44.570;18.610;2023-10-19T14:38:33;18.88;;;11.27;;
78183;SDS011;67442;44.570;18.610;2023-10-19T14:41:01;18.80;;;10.38;;
78183;SDS011;67442;44.570;18.610;2023-10-19T14:43:29;20.58;;;12.02;;
78183;SDS011;67442;44.570;18.610;2023-10-19T14:45:56;23.13;;;11.82;;
78183;SDS011;67442;44.570;18.610;2023-10-19T14:48:23;19.92;;;11.35;;
78183;SDS011;67442;44.570;18.610;2023-10-19T14:50:57;21.13;;;11.55;;
78183;SDS011;67442;44.570;18.610;2023-10-19T14:53:25;18.95;;;10.82;;
78183;SDS011;67442;44.570;18.610;2023-10-19T14:55:56;21.25;;;11.30;;